createdAt,value
2023-02-19T00:02:19.503Z,9.30
2023-02-19T00:04:49.084Z,9.30
2023-02-19T00:07:17.185Z,9.30
2023-02-19T00:09:45.282Z,9.40
2023-02-19T00:12:13.842Z,9.40
2023-02-19T00:14:41.938Z,9.40
2023-02-19T00:17:10.087Z,9.40
2023-02-19T00:19:38.109Z,9.40
2023-02-19T00:22:07.531Z,9.50
2023-02-19T00:24:37.102Z,9.50
2023-02-19T00:27:05.272Z,9.50
2023-02-19T00:29:33.501Z,9.50
2023-02-19T00:32:05.046Z,9.50
2023-02-19T00:34:33.242Z,9.50
2023-02-19T00:37:01.439Z,9.40
2023-02-19T00:39:30.987Z,9.30
2023-02-19T00:42:00.648Z,9.20
2023-02-19T00:44:28.652Z,9.10
2023-02-19T00:46:56.751Z,9.10
2023-02-19T00:49:25.176Z,9.00
2023-02-19T00:51:54.390Z,9.00
2023-02-19T00:54:24.086Z,9.00
2023-02-19T00:56:53.449Z,9.00
2023-02-19T00:59:21.497Z,9.00
2023-02-19T01:01:49.747Z,9.00
2023-02-19T01:04:18.026Z,9.00
2023-02-19T01:06:46.349Z,9.00
2023-02-19T01:09:14.274Z,9.10
2023-02-19T01:11:42.514Z,9.00
2023-02-19T01:14:12.410Z,9.10
2023-02-19T01:16:40.441Z,9.10
2023-02-19T01:19:08.833Z,9.10
2023-02-19T01:21:36.924Z,9.10
2023-02-19T01:24:05.279Z,9.10
2023-02-19T01:26:34.852Z,9.20
2023-02-19T01:29:03.603Z,9.20
2023-02-19T01:31:33.352Z,9.20
2023-02-19T01:34:04.434Z,9.20
2023-02-19T01:36:35.031Z,9.10
2023-02-19T01:39:05.140Z,9.10
2023-02-19T01:41:37.260Z,9.00
2023-02-19T01:44:08.859Z,9.00
2023-02-19T01:46:40.016Z,9.10
2023-02-19T01:49:14.175Z,9.10
2023-02-19T01:51:50.201Z,9.20
2023-02-19T01:54:23.513Z,9.10
2023-02-19T01:56:52.993Z,8.90
2023-02-19T01:59:21.377Z,8.90
2023-02-19T02:01:51.720Z,8.80
2023-02-19T02:04:20.403Z,8.70
2023-02-19T02:06:52.552Z,8.70
2023-02-19T02:09:40.848Z,8.70
2023-02-19T02:12:09.494Z,8.70
2023-02-19T02:14:41.291Z,8.70
2023-02-19T02:17:21.628Z,8.80
2023-02-19T02:20:19.918Z,8.80
2023-02-19T02:22:56.699Z,8.80
2023-02-19T02:25:59.201Z,8.80
2023-02-19T02:28:59.288Z,8.80
2023-02-19T02:31:36.988Z,8.80
2023-02-19T02:34:13.402Z,8.80
2023-02-19T02:36:46.033Z,8.80
2023-02-19T02:39:20.444Z,8.70
2023-02-19T02:42:09.912Z,8.80
2023-02-19T02:44:38.850Z,8.70
2023-02-19T02:47:31.661Z,8.70
2023-02-19T02:50:07.891Z,8.70
2023-02-19T02:52:59.861Z,8.60
2023-02-19T02:55:34.772Z,8.60
2023-02-19T02:58:04.005Z,8.60
2023-02-19T03:00:58.900Z,8.60
2023-02-19T03:03:30.786Z,8.60
2023-02-19T03:06:08.118Z,8.70
2023-02-19T03:08:42.704Z,8.70
2023-02-19T03:11:30.627Z,8.70
2023-02-19T03:14:23.727Z,8.70
2023-02-19T03:17:14.968Z,8.80
2023-02-19T03:19:53.911Z,8.70
2023-02-19T03:22:30.489Z,8.70
2023-02-19T03:25:26.189Z,8.70
2023-02-19T03:27:58.729Z,8.70
2023-02-19T03:30:35.419Z,8.70
2023-02-19T03:33:10.924Z,8.70
2023-02-19T03:35:47.474Z,8.70
2023-02-19T03:38:22.606Z,8.80
2023-02-19T03:41:01.343Z,8.80
2023-02-19T03:43:42.967Z,8.80
2023-02-19T03:46:16.743Z,8.70
2023-02-19T03:48:57.816Z,8.70
2023-02-19T03:51:39.102Z,8.80
2023-02-19T03:54:18.880Z,8.80
2023-02-19T03:56:55.213Z,8.90
2023-02-19T03:59:33.554Z,8.90
2023-02-19T04:02:08.577Z,8.90
2023-02-19T04:04:42.375Z,8.90
2023-02-19T04:07:12.521Z,8.90
2023-02-19T04:09:48.345Z,9.10
2023-02-19T04:12:18.829Z,9.00
2023-02-19T04:14:54.934Z,8.90
2023-02-19T04:17:30.343Z,8.90
2023-02-19T04:20:03.534Z,8.80
2023-02-19T04:22:33.224Z,8.80
2023-02-19T04:25:01.814Z,8.70
2023-02-19T04:27:30.002Z,8.80
2023-02-19T04:29:58.160Z,8.70
2023-02-19T04:32:26.181Z,8.70
2023-02-19T04:34:54.465Z,8.70
2023-02-19T04:37:22.610Z,8.70
2023-02-19T04:39:52.085Z,8.80
2023-02-19T04:42:20.262Z,8.90
2023-02-19T04:44:48.383Z,8.90
2023-02-19T04:47:17.730Z,8.90
2023-02-19T04:49:46.272Z,8.90
2023-02-19T04:52:14.542Z,9.00
2023-02-19T04:54:42.623Z,9.00
2023-02-19T04:57:12.306Z,9.00
2023-02-19T04:59:40.529Z,9.00
2023-02-19T05:02:08.644Z,9.00
2023-02-19T05:04:36.802Z,9.10
2023-02-19T05:07:05.227Z,9.20
2023-02-19T05:09:33.344Z,9.30
2023-02-19T05:12:01.421Z,9.40
2023-02-19T05:14:30.896Z,9.30
2023-02-19T05:16:59.038Z,9.30
2023-02-19T05:19:27.094Z,9.30
2023-02-19T05:21:55.446Z,9.30
2023-02-19T05:24:24.346Z,9.30
2023-02-19T05:26:52.465Z,9.30
2023-02-19T05:29:20.592Z,9.20
2023-02-19T05:31:50.186Z,9.30
2023-02-19T05:34:18.274Z,9.30
2023-02-19T05:36:46.331Z,9.20
2023-02-19T05:39:14.526Z,9.20
2023-02-19T05:41:42.623Z,9.20
2023-02-19T05:44:11.658Z,9.20
2023-02-19T05:46:39.733Z,9.20
2023-02-19T05:49:09.324Z,9.10
2023-02-19T05:51:37.493Z,9.10
2023-02-19T05:54:05.923Z,9.20
2023-02-19T05:56:36.754Z,9.30
2023-02-19T05:59:08.329Z,9.20
2023-02-19T06:01:37.671Z,9.20
2023-02-19T06:04:06.206Z,9.20
2023-02-19T06:06:35.758Z,9.20
2023-02-19T06:09:04.787Z,9.10
2023-02-19T06:11:33.222Z,9.10
2023-02-19T06:14:01.314Z,9.10
2023-02-19T06:16:29.792Z,9.20
2023-02-19T06:18:57.895Z,9.20
2023-02-19T06:21:26.202Z,9.20
2023-02-19T06:23:55.729Z,9.10
2023-02-19T06:26:25.901Z,9.20
2023-02-19T06:28:55.374Z,9.20
2023-02-19T06:31:24.208Z,9.20
2023-02-19T06:33:52.387Z,9.20
2023-02-19T06:36:22.948Z,9.10
2023-02-19T06:38:52.226Z,9.10
2023-02-19T06:41:21.713Z,9.00
2023-02-19T06:43:49.899Z,9.10
2023-02-19T06:46:18.156Z,9.10
2023-02-19T06:48:47.170Z,9.10
2023-02-19T06:51:18.771Z,9.10
2023-02-19T06:53:47.259Z,9.10
2023-02-19T06:56:27.412Z,9.20
2023-02-19T06:59:00.616Z,9.20
2023-02-19T07:01:30.016Z,9.20
2023-02-19T07:03:58.578Z,9.20
2023-02-19T07:06:28.656Z,9.20
2023-02-19T07:08:58.996Z,9.30
2023-02-19T07:11:32.318Z,9.30
2023-02-19T07:14:03.527Z,9.30
2023-02-19T07:16:32.122Z,9.40
2023-02-19T07:19:01.773Z,9.40
2023-02-19T07:21:31.415Z,9.40
2023-02-19T07:23:59.852Z,9.40
2023-02-19T07:26:29.329Z,9.40
2023-02-19T07:28:57.408Z,9.50
2023-02-19T07:31:26.202Z,9.50
2023-02-19T07:33:54.528Z,9.50
2023-02-19T07:36:25.308Z,9.50
2023-02-19T07:38:57.604Z,9.50
2023-02-19T07:41:26.988Z,9.60
2023-02-19T07:43:56.396Z,9.60
2023-02-19T07:46:24.886Z,9.60
2023-02-19T07:48:53.035Z,9.70
2023-02-19T07:51:21.956Z,9.70
2023-02-19T07:53:51.570Z,9.70
2023-02-19T07:56:21.557Z,9.70
2023-02-19T07:58:52.159Z,9.70
2023-02-19T08:01:45.134Z,9.70
2023-02-19T08:04:14.306Z,9.70
2023-02-19T08:06:43.736Z,9.80
2023-02-19T08:09:12.259Z,9.80
2023-02-19T08:11:57.982Z,9.90
2023-02-19T08:14:27.134Z,9.90
2023-02-19T08:16:57.158Z,10.00
2023-02-19T08:19:25.691Z,10.10
2023-02-19T08:21:54.378Z,10.10
2023-02-19T08:24:22.585Z,10.10
2023-02-19T08:26:50.923Z,10.20
2023-02-19T08:29:19.341Z,10.30
2023-02-19T08:31:47.660Z,10.30
2023-02-19T08:34:17.123Z,10.40
2023-02-19T08:36:45.457Z,10.50
2023-02-19T08:39:13.718Z,10.60
2023-02-19T08:41:41.815Z,10.60
2023-02-19T08:44:09.842Z,10.70
2023-02-19T08:46:37.857Z,10.80
2023-02-19T08:49:05.942Z,10.90
2023-02-19T08:51:35.417Z,11.10
2023-02-19T08:54:04.945Z,11.10
2023-02-19T08:56:33.041Z,11.10
2023-02-19T08:59:01.103Z,11.10
2023-02-19T09:01:29.239Z,11.10
2023-02-19T09:03:57.486Z,11.10
2023-02-19T09:06:25.619Z,11.10
2023-02-19T09:08:55.216Z,11.10
2023-02-19T09:11:23.335Z,11.10
2023-02-19T09:13:51.403Z,11.10
2023-02-19T09:16:19.406Z,11.00
2023-02-19T09:18:47.552Z,11.10
2023-02-19T09:21:15.701Z,11.10
2023-02-19T09:23:43.749Z,11.10
2023-02-19T09:26:14.042Z,11.20
2023-02-19T09:28:43.072Z,11.10
2023-02-19T09:31:14.407Z,11.10
2023-02-19T09:33:47.305Z,11.10
2023-02-19T09:36:17.275Z,11.10
2023-02-19T09:38:45.889Z,11.20
2023-02-19T09:41:25.804Z,11.10
2023-02-19T09:43:54.071Z,11.00
2023-02-19T09:46:32.843Z,11.00
2023-02-19T09:49:08.063Z,11.00
2023-02-19T09:51:41.164Z,11.00
2023-02-19T09:54:21.482Z,11.10
2023-02-19T09:56:51.957Z,11.30
2023-02-19T09:59:26.815Z,11.50
2023-02-19T10:02:03.868Z,11.50
2023-02-19T10:04:31.780Z,11.60
2023-02-19T10:07:03.740Z,11.70
2023-02-19T10:09:32.615Z,11.70
2023-02-19T10:12:02.568Z,11.70
2023-02-19T10:14:37.783Z,11.80
2023-02-19T10:17:08.235Z,11.80
2023-02-19T10:19:37.835Z,12.00
2023-02-19T10:22:06.694Z,12.00
2023-02-19T10:24:35.904Z,12.10
2023-02-19T10:27:13.217Z,12.10
2023-02-19T10:29:41.495Z,12.20
2023-02-19T10:32:23.831Z,12.10
2023-02-19T10:35:13.154Z,12.00
2023-02-19T10:37:47.355Z,12.10
2023-02-19T10:40:22.098Z,12.00
2023-02-19T10:42:55.380Z,12.10
2023-02-19T10:45:30.534Z,12.10
2023-02-19T10:47:59.142Z,12.10
2023-02-19T10:50:32.798Z,12.10
2023-02-19T10:53:02.157Z,12.10
2023-02-19T10:55:37.807Z,12.10
2023-02-19T10:58:26.939Z,12.10
2023-02-19T11:01:19.610Z,12.20
2023-02-19T11:03:51.561Z,12.30
2023-02-19T11:06:22.750Z,12.40
2023-02-19T11:08:55.841Z,12.30
2023-02-19T11:11:35.138Z,12.20
2023-02-19T11:14:16.430Z,12.30
2023-02-19T11:16:48.021Z,12.40
2023-02-19T11:19:37.869Z,12.50
2023-02-19T11:22:29.508Z,12.50
2023-02-19T11:25:03.671Z,12.60
2023-02-19T11:27:33.625Z,12.60
2023-02-19T11:30:36.264Z,12.60
2023-02-19T11:33:25.299Z,12.70
2023-02-19T11:36:00.654Z,12.70
2023-02-19T11:38:29.380Z,12.80
2023-02-19T11:41:12.527Z,12.80
2023-02-19T11:44:02.371Z,12.80
2023-02-19T11:46:43.765Z,12.60
2023-02-19T11:49:34.399Z,12.70
2023-02-19T11:52:23.396Z,12.70
2023-02-19T11:54:58.287Z,12.70
2023-02-19T11:57:43.638Z,12.90
2023-02-19T12:00:27.242Z,12.80
2023-02-19T12:03:51.023Z,12.70
2023-02-19T12:06:35.827Z,12.80
2023-02-19T12:09:29.087Z,13.00
2023-02-19T12:12:22.402Z,13.10
2023-02-19T12:15:27.265Z,13.30
2023-02-19T12:18:40.872Z,13.30
2023-02-19T12:21:29.828Z,13.30
2023-02-19T12:24:48.648Z,12.80
2023-02-19T12:27:31.238Z,12.60
2023-02-19T12:30:27.248Z,12.40
2023-02-19T12:33:36.118Z,12.40
2023-02-19T12:36:22.633Z,12.20
2023-02-19T12:39:02.403Z,12.10
2023-02-19T12:41:43.706Z,12.20
2023-02-19T12:44:19.385Z,12.40
2023-02-19T12:46:55.171Z,12.60
2023-02-19T12:49:32.780Z,12.70
2023-02-19T12:52:10.541Z,12.70
2023-02-19T12:54:45.119Z,12.50
2023-02-19T12:57:18.849Z,12.40
2023-02-19T12:59:55.281Z,12.50
2023-02-19T13:02:32.459Z,12.50
2023-02-19T13:05:14.377Z,12.40
2023-02-19T13:07:55.188Z,12.30
2023-02-19T13:10:33.406Z,12.30
2023-02-19T13:13:08.777Z,12.20
2023-02-19T13:15:42.849Z,12.30
2023-02-19T13:18:20.413Z,12.40
2023-02-19T13:20:51.953Z,12.30
2023-02-19T13:23:46.616Z,12.30
2023-02-19T13:26:46.210Z,12.40
2023-02-19T13:29:34.307Z,12.30
2023-02-19T13:32:30.803Z,12.40
2023-02-19T13:35:25.089Z,12.50
2023-02-19T13:37:55.597Z,12.60
2023-02-19T13:40:34.871Z,12.60
2023-02-19T13:43:06.555Z,12.50
2023-02-19T13:45:46.851Z,12.50
2023-02-19T13:48:27.763Z,12.50
2023-02-19T13:51:40.194Z,12.40
2023-02-19T13:54:24.587Z,12.30
2023-02-19T13:57:28.924Z,12.10
2023-02-19T13:59:58.874Z,11.90
2023-02-19T14:02:33.887Z,11.80
2023-02-19T14:05:07.896Z,11.70
2023-02-19T14:08:03.954Z,11.50
2023-02-19T14:11:03.222Z,11.30
2023-02-19T14:14:24.593Z,11.20
2023-02-19T14:17:07.578Z,11.20
2023-02-19T14:19:53.870Z,11.20
2023-02-19T14:23:16.666Z,11.30
2023-02-19T14:25:53.319Z,11.40
2023-02-19T14:28:36.096Z,11.60
2023-02-19T14:31:19.027Z,11.70
2023-02-19T14:33:51.434Z,11.70
2023-02-19T14:36:44.125Z,11.60
2023-02-19T14:39:18.987Z,11.60
2023-02-19T14:41:51.333Z,11.50
2023-02-19T14:44:25.921Z,11.40
2023-02-19T14:47:01.769Z,11.40
2023-02-19T14:49:42.476Z,11.40
2023-02-19T14:52:20.315Z,11.30
2023-02-19T14:54:55.063Z,11.20
2023-02-19T14:57:29.829Z,11.20
2023-02-19T15:00:01.389Z,11.10
2023-02-19T15:02:33.361Z,11.10
2023-02-19T15:05:01.497Z,11.10
2023-02-19T15:07:34.310Z,11.10
2023-02-19T15:10:06.018Z,11.00
2023-02-19T15:12:42.331Z,11.00
2023-02-19T15:15:18.369Z,11.10
2023-02-19T15:17:48.111Z,11.20
2023-02-19T15:20:21.758Z,11.20
2023-02-19T15:22:50.842Z,11.30
2023-02-19T15:25:23.639Z,11.30
2023-02-19T15:27:52.137Z,11.30
2023-02-19T15:30:24.953Z,11.30
2023-02-19T15:32:57.026Z,11.20
2023-02-19T15:35:27.431Z,11.10
2023-02-19T15:37:56.773Z,11.10
2023-02-19T15:40:32.381Z,11.00
2023-02-19T15:43:02.060Z,11.00
2023-02-19T15:45:38.295Z,11.00
2023-02-19T15:48:14.941Z,10.90
2023-02-19T15:50:48.052Z,10.90
2023-02-19T15:53:20.616Z,10.90
2023-02-19T15:56:00.480Z,10.80
2023-02-19T15:58:37.521Z,10.80
2023-02-19T16:01:12.754Z,10.80
2023-02-19T16:03:43.158Z,10.70
2023-02-19T16:06:15.177Z,10.70
2023-02-19T16:08:45.480Z,10.70
2023-02-19T16:11:36.337Z,10.70
2023-02-19T16:14:30.975Z,10.60
2023-02-19T16:17:12.699Z,10.60
2023-02-19T16:19:52.855Z,10.70
2023-02-19T16:22:24.298Z,10.60
2023-02-19T16:24:56.496Z,10.60
2023-02-19T16:27:34.326Z,10.60
2023-02-19T16:30:09.196Z,10.50
2023-02-19T16:32:37.365Z,10.50
2023-02-19T16:35:36.163Z,10.50
2023-02-19T16:38:06.229Z,10.50
2023-02-19T16:41:07.961Z,10.40
2023-02-19T16:43:44.106Z,10.30
2023-02-19T16:46:14.171Z,10.30
2023-02-19T16:48:42.537Z,10.30
2023-02-19T16:51:27.450Z,10.40
2023-02-19T16:53:55.502Z,10.40
2023-02-19T16:56:26.320Z,10.30
2023-02-19T16:58:54.360Z,10.30
2023-02-19T17:01:22.445Z,10.20
2023-02-19T17:03:52.401Z,10.20
2023-02-19T17:06:21.812Z,10.20
2023-02-19T17:08:49.918Z,10.20
2023-02-19T17:11:19.561Z,10.20
2023-02-19T17:13:48.703Z,10.10
2023-02-19T17:16:20.776Z,10.10
2023-02-19T17:18:49.412Z,10.20
2023-02-19T17:21:23.479Z,10.10
2023-02-19T17:23:52.378Z,10.10
2023-02-19T17:26:23.724Z,10.10
2023-02-19T17:28:52.405Z,10.00
2023-02-19T17:31:20.892Z,10.00
2023-02-19T17:33:49.893Z,10.00
2023-02-19T17:36:21.009Z,10.00
2023-02-19T17:38:50.612Z,9.90
2023-02-19T17:41:18.659Z,9.90
2023-02-19T17:43:47.482Z,9.80
2023-02-19T17:46:17.325Z,9.80
2023-02-19T17:48:45.581Z,9.70
2023-02-19T17:51:14.466Z,9.70
2023-02-19T17:53:43.065Z,9.70
2023-02-19T17:56:17.883Z,9.70
2023-02-19T17:58:46.082Z,9.70
2023-02-19T18:01:15.257Z,9.70
2023-02-19T18:03:43.882Z,9.80
2023-02-19T18:06:11.943Z,9.70
2023-02-19T18:08:42.033Z,9.70
2023-02-19T18:11:10.443Z,9.60
2023-02-19T18:13:40.554Z,9.50
2023-02-19T18:16:09.873Z,9.40
2023-02-19T18:18:38.089Z,9.40
2023-02-19T18:21:09.748Z,9.40
2023-02-19T18:23:38.313Z,9.30
2023-02-19T18:26:10.225Z,9.40
2023-02-19T18:28:39.953Z,9.40
2023-02-19T18:31:08.878Z,9.40
2023-02-19T18:33:36.928Z,9.40
2023-02-19T18:36:10.828Z,9.30
2023-02-19T18:38:39.326Z,9.30
2023-02-19T18:41:07.499Z,9.30
2023-02-19T18:43:35.482Z,9.30
2023-02-19T18:46:08.641Z,9.20
2023-02-19T18:48:36.756Z,9.20
2023-02-19T18:51:05.599Z,9.30
2023-02-19T18:53:33.589Z,9.30
2023-02-19T18:56:02.023Z,9.30
2023-02-19T18:58:30.209Z,9.40
2023-02-19T19:01:01.209Z,9.30
2023-02-19T19:03:32.353Z,9.50
2023-02-19T19:06:00.575Z,9.40
2023-02-19T19:08:30.573Z,9.40
2023-02-19T19:10:58.782Z,9.60
2023-02-19T19:13:26.847Z,9.60
2023-02-19T19:15:54.920Z,9.70
2023-02-19T19:18:24.978Z,9.70
2023-02-19T19:20:56.631Z,9.70
2023-02-19T19:23:24.945Z,9.60
2023-02-19T19:25:54.543Z,9.60
2023-02-19T19:28:22.783Z,9.60
2023-02-19T19:30:51.007Z,9.60
2023-02-19T19:33:19.105Z,9.50
2023-02-19T19:35:47.152Z,9.40
2023-02-19T19:38:17.075Z,9.30
2023-02-19T19:40:45.288Z,9.30
2023-02-19T19:43:13.853Z,9.20
2023-02-19T19:45:42.129Z,9.00
2023-02-19T19:48:10.342Z,8.90
2023-02-19T19:50:38.562Z,8.70
2023-02-19T19:53:06.869Z,8.50
2023-02-19T19:55:36.576Z,8.50
2023-02-19T19:58:06.098Z,8.40
2023-02-19T20:00:36.104Z,8.40
2023-02-19T20:03:05.554Z,8.50
2023-02-19T20:05:33.945Z,8.50
2023-02-19T20:08:02.144Z,8.70
2023-02-19T20:10:30.276Z,8.70
2023-02-19T20:13:00.265Z,8.80
2023-02-19T20:15:28.417Z,8.70
2023-02-19T20:17:56.822Z,8.80
2023-02-19T20:20:25.394Z,8.80
2023-02-19T20:22:55.590Z,8.90
2023-02-19T20:25:25.590Z,9.00
2023-02-19T20:27:54.955Z,9.10
2023-02-19T20:30:26.145Z,9.20
2023-02-19T20:32:54.527Z,9.10
2023-02-19T20:35:26.473Z,9.00
2023-02-19T20:37:55.685Z,9.10
2023-02-19T20:40:27.439Z,9.00
2023-02-19T20:42:55.699Z,8.90
2023-02-19T20:45:26.456Z,8.70
2023-02-19T20:47:54.884Z,8.50
2023-02-19T20:50:23.544Z,8.40
2023-02-19T20:52:51.887Z,8.20
2023-02-19T20:55:20.158Z,8.00
2023-02-19T20:57:48.396Z,7.80
2023-02-19T21:00:17.647Z,7.70
2023-02-19T21:02:47.499Z,7.40
2023-02-19T21:05:17.116Z,7.10
2023-02-19T21:07:45.364Z,6.90
2023-02-19T21:10:14.188Z,6.80
2023-02-19T21:12:43.310Z,6.60
2023-02-19T21:15:11.489Z,6.50
2023-02-19T21:17:39.711Z,6.40
2023-02-19T21:20:11.346Z,6.40
2023-02-19T21:22:40.560Z,6.10
2023-02-19T21:25:09.003Z,5.90
2023-02-19T21:27:37.858Z,5.70
2023-02-19T21:30:07.676Z,5.50
2023-02-19T21:32:35.743Z,5.30
2023-02-19T21:35:04.237Z,5.10
2023-02-19T21:37:34.099Z,4.90
2023-02-19T21:40:02.494Z,4.80
2023-02-19T21:42:30.901Z,4.70
2023-02-19T21:44:59.420Z,4.60
2023-02-19T21:47:29.089Z,4.50
2023-02-19T21:49:57.341Z,4.40
2023-02-19T21:52:27.024Z,4.50
2023-02-19T21:54:56.867Z,4.50
2023-02-19T21:57:25.310Z,4.60
2023-02-19T21:59:54.479Z,4.70
2023-02-19T22:02:22.784Z,4.80
2023-02-19T22:04:54.936Z,4.90
2023-02-19T22:07:23.787Z,4.90
2023-02-19T22:09:53.567Z,5.00
2023-02-19T22:12:23.472Z,4.90
2023-02-19T22:14:52.821Z,5.00
2023-02-19T22:17:21.339Z,5.00
2023-02-19T22:19:49.723Z,4.90
2023-02-19T22:22:18.185Z,4.80
2023-02-19T22:24:46.672Z,4.50
2023-02-19T22:27:15.178Z,4.40
2023-02-19T22:29:45.249Z,4.20
2023-02-19T22:32:13.763Z,4.10
2023-02-19T22:34:42.685Z,4.10
2023-02-19T22:37:11.694Z,4.20
2023-02-19T22:39:40.241Z,4.20
2023-02-19T22:42:08.642Z,4.00
2023-02-19T22:44:36.988Z,4.10
2023-02-19T22:47:08.404Z,3.90
2023-02-19T22:49:40.007Z,3.70
2023-02-19T22:52:10.998Z,3.40
2023-02-19T22:54:39.659Z,3.30
2023-02-19T22:57:07.923Z,3.30
2023-02-19T22:59:36.217Z,3.20
2023-02-19T23:02:05.954Z,3.10
2023-02-19T23:04:34.369Z,3.00
2023-02-19T23:07:02.619Z,2.90
2023-02-19T23:09:31.048Z,2.80
2023-02-19T23:12:04.794Z,3.00
2023-02-19T23:14:33.326Z,3.10
2023-02-19T23:17:02.020Z,3.10
2023-02-19T23:19:31.821Z,3.10
2023-02-19T23:22:00.307Z,3.00
2023-02-19T23:24:29.212Z,3.00
2023-02-19T23:26:59.628Z,2.90
2023-02-19T23:29:30.749Z,2.70
2023-02-19T23:32:00.256Z,2.50
2023-02-19T23:34:28.365Z,2.40
2023-02-19T23:36:59.540Z,2.50
2023-02-19T23:39:27.639Z,2.50
2023-02-19T23:41:58.462Z,2.50
2023-02-19T23:44:27.469Z,2.70
2023-02-19T23:46:55.711Z,2.80
2023-02-19T23:49:24.237Z,3.00
2023-02-19T23:51:52.335Z,2.80
2023-02-19T23:54:21.854Z,2.70
2023-02-19T23:56:50.019Z,2.70
2023-02-19T23:59:18.232Z,2.70
